Flight Track Log - Related Links

Times and Time Zones

All times are in EDT time to prevent confusion due to time zone crossing. See the AWE1616 flight status page for this flight to view local times or setup timezone preferences in your user account.

Time Position Orientation Groundspeed Altitude Reporting Facility
EDT Latitude Longitude Course Direction KTS MPH feet Rate Location/Type
Wed 10:18:39 AM 35.1867 -80.9358 72° East 165 190 2,000  Level Atlanta Center
Wed 10:19:40 AM 35.1381 -80.9147 160° South 216 249 3,100 1,795 Climbing Atlanta Center
Wed 10:20:36 AM 35.0950 -80.8556 132° Southeast 283 326 5,500 2,564 Climbing Atlanta Center
Wed 10:21:00 AM 35.1204 -80.6197 29° Northeast  Level FlightAware Approximate
Wed 10:21:37 AM 35.1133 -80.7658 76° East 300 345 8,100  Level Atlanta Center
Wed 10:22:00 AM 35.2196 -80.5527 30° Northeast  Level FlightAware Approximate
Wed 10:22:54 AM 35.1667 -80.6572 59° Northeast 315 362 10,700  Level Atlanta Center
Wed 10:23:00 AM 35.3167 -80.4822 90° East  Level FlightAware Approximate
Wed 10:23:54 AM 35.2242 -80.5481 57° Northeast 347 399 12,100  Level Atlanta Center
Wed 10:24:00 AM 35.3592 -80.3687 72° East  Level FlightAware Approximate
Wed 10:25:54 AM 35.3450 -80.3131 58° Northeast 395 455 17,600  Level Washington Center
Wed 10:26:55 AM 35.4036 -80.2044 56° Northeast 389 448 19,300 1,623 Climbing Washington Center
Wed 10:27:56 AM 35.4478 -80.0819 66° East 384 442 20,900 1,550 Climbing Washington Center
Wed 10:28:55 AM 35.4819 -79.9539 72° East 384 442 22,400 1,361 Climbing Washington Center
Wed 10:29:55 AM 35.5158 -79.8178 73° East 395 455 23,600 1,240 Climbing Washington Center
Wed 10:30:56 AM 35.5519 -79.6819 72° East 408 470 24,900 1,210 Climbing Washington Center
Wed 10:31:54 AM 35.5856 -79.5508 72° East 424 488 26,000 1,311 Climbing Washington Center
Wed 10:32:55 AM 35.6281 -79.3969 71° East 436 502 27,500 1,190 Climbing Washington Center
Wed 10:33:55 AM 35.6867 -79.2617 62° Northeast 436 502 28,400 843 Climbing Washington Center
Wed 10:34:56 AM 35.7647 -79.1631 46° Northeast 442 509 29,200 908 Climbing Washington Center
Wed 10:35:54 AM 35.8758 -79.0808 31° Northeast 437 503 30,200 915 Climbing Washington Center
Wed 10:36:54 AM 35.9886 -78.9986 31° Northeast 453 521 31,000 397 Climbing Washington Center
Wed 10:37:55 AM 36.1014 -78.9186 30° Northeast 459 528 31,000  Level Washington Center
Wed 10:38:55 AM 36.2144 -78.8333 31° Northeast 471 542 31,000  Level Washington Center
Wed 10:39:56 AM 36.3272 -78.7478 31° Northeast 471 542 31,000  Level Washington Center
Wed 10:40:54 AM 36.4358 -78.6642 32° Northeast 471 542 31,000  Level Washington Center
Wed 10:41:54 AM 36.5486 -78.5808 31° Northeast 471 542 31,000  Level Washington Center
Wed 10:42:55 AM 36.6633 -78.4944 31° Northeast 471 542 31,000  Level Washington Center
Wed 10:43:56 AM 36.7761 -78.4056 32° Northeast 471 542 31,000 -397 Level Washington Center
Wed 10:44:56 AM 36.8906 -78.3239 30° Northeast 471 542 30,200 -966 Descending Washington Center
Wed 10:45:54 AM 37.0117 -78.2267 33° Northeast 471 542 29,100 -900 Descending Washington Center
Wed 10:46:56 AM 37.1222 -78.1394 32° Northeast 471 542 28,400 -836 Descending Washington Center
Wed 10:47:56 AM 37.2153 -78.0719 30° Northeast 454 522 27,400 -712 Descending Washington Center
Wed 10:48:54 AM 37.3233 -77.9894 31° Northeast 448 516 27,000 -202 Descending Washington Center
Wed 10:49:55 AM 37.4336 -77.9014 32° Northeast 453 521 27,000  Level Washington Center
Wed 10:50:55 AM 37.5414 -77.8181 32° Northeast 459 528 27,000  Level Washington Center
Wed 10:51:56 AM 37.6456 -77.7242 36° Northeast 459 528 27,000  Level Washington Center
Wed 10:52:55 AM 37.7492 -77.6297 36° Northeast 464 534 27,000  Level Washington Center
Wed 10:53:55 AM 37.8553 -77.5328 36° Northeast 459 528 27,000  Level Washington Center
Wed 10:54:56 AM 37.9589 -77.4381 36° Northeast 459 528 27,000  Level Washington Center
Wed 10:55:56 AM 38.0731 -77.3325 36° Northeast 459 528 27,000  Level Washington Center
Wed 10:56:54 AM 38.1828 -77.2294 36° Northeast 459 528 27,000  Level Washington Center
Wed 10:57:54 AM 38.2842 -77.1364 36° Northeast 474 545 27,000  Level Washington Center
Wed 10:58:55 AM 38.4044 -77.0250 36° Northeast 487 560 27,000  Level Washington Center
Wed 10:59:56 AM 38.5139 -76.9264 35° Northeast 487 560 27,000  Level Washington Center
Wed 11:00:54 AM 38.6236 -76.8247 36° Northeast 488 562 27,000  Level Washington Center
Wed 11:01:55 AM 38.7203 -76.7253 39° Northeast 488 562 27,000  Level Washington Center
Wed 11:02:56 AM 38.8214 -76.6122 41° Northeast 483 556 27,000  Level Washington Center
Wed 11:03:57 AM 38.9225 -76.4961 42° Northeast 483 556 27,000  Level Washington Center
Wed 11:04:54 AM 39.0233 -76.3797 42° Northeast 483 556 27,000  Level Washington Center
Wed 11:05:55 AM 39.1242 -76.2631 42° Northeast 488 562 27,000 -400 Level Washington Center
Wed 11:06:54 AM 39.2289 -76.1436 41° Northeast 493 567 26,200 -958 Descending Washington Center
Wed 11:07:54 AM 39.3253 -76.0261 43° Northeast 488 562 25,100 -595 Descending Washington Center
Wed 11:08:55 AM 39.4214 -75.9192 41° Northeast 470 541 25,000 -50 Descending Washington Center
Wed 11:09:55 AM 39.5114 -75.8094 43° Northeast 451 519 25,000  Level Washington Center
Wed 11:10:56 AM 39.6031 -75.6992 43° Northeast 444 511 25,000 -151 Level Washington Center
Wed 11:11:54 AM 39.6928 -75.5942 42° Northeast 444 511 24,700 -2,288 Descending Washington Center
Wed 11:12:54 AM 39.7822 -75.4836 44° Northeast 444 511 20,500 -3,885 Descending Washington Center
Wed 11:13:56 AM 39.8675 -75.3833 42° Northeast 430 495 16,800 -3,200 Descending Washington Center
Wed 11:14:54 AM 39.9547 -75.2722 44° Northeast 415 478 14,100 -2,218 Descending Washington Center
Wed 11:15:55 AM 40.0317 -75.1822 42° Northeast 383 441 12,400 -1,224 Descending Washington Center
Wed 11:18:10 AM 40.1833 -75.0000 43° Northeast 302 348 10,100 -1,046 Descending New York TRACON
Wed 11:19:10 AM 40.2333 -74.9333 45° Northeast 296 341 9,000 -1,050 Descending New York TRACON
Wed 11:20:10 AM 40.3000 -74.8500 44° Northeast 288 331 8,000 -1,050 Descending New York TRACON
Wed 11:21:10 AM 40.3500 -74.7833 45° Northeast 288 331 6,900 -1,053 Descending New York TRACON
Wed 11:22:04 AM 40.4000 -74.7000 52° Northeast 282 325 6,000 -474 Descending New York TRACON
Wed 11:23:04 AM 40.4667 -74.6667 21° North 280 322 6,000  Level New York TRACON
Wed 11:24:04 AM 40.5333 -74.6333 21° North 276 318 6,000  Level New York TRACON
Wed 11:24:58 AM 40.6000 -74.6167 11° North 277 319 6,000  Level New York TRACON
Wed 11:26:04 AM 40.6833 -74.6000 North 277 319 6,000 -238 Level New York TRACON
Wed 11:27:04 AM 40.7500 -74.5667 21° North 280 322 5,500 -500 Descending New York TRACON
Wed 11:28:04 AM 40.8000 -74.4833 52° Northeast 277 319 5,000 -263 Descending New York TRACON
Wed 11:28:58 AM 40.8500 -74.4167 45° Northeast 274 315 5,000 -105 Level New York TRACON
Wed 11:29:58 AM 40.9000 -74.3333 52° Northeast 281 323 4,800 -500 Descending New York TRACON
Wed 11:30:58 AM 40.9167 -74.2500 75° East 278 320 4,000 -400 Descending New York TRACON
Wed 11:31:58 AM 40.9167 -74.1500 90° East 280 322 4,000 -476 Level New York TRACON
Wed 11:33:04 AM 40.8500 -74.0833 143° Southeast 262 302 3,000 -950 Descending New York TRACON
Wed 11:33:58 AM 40.8000 -74.1000 194° South 212 244 2,100 -947 Descending New York TRACON
Wed 11:34:58 AM 40.7500 -74.1333 207° Southwest 161 185 1,200 -850 Descending New York TRACON
Wed 11:35:58 AM 40.7167 -74.1500 201° Southwest 145 167 400 -800 Descending New York TRACON

Login

Don't have an account? Register now (free) for customized features, flight alerts, and more!